Manhattan Regional Airport Manhattan US
ICAO: KMHK
IATA: MHK
Category: Medium
Scheduled Services: Yes

Elevation: 1057 ft
TransAlt. 18000 ft.

Airport Communications:
KANSAS CITY CNTR:127.35
ASOS:119.075
CTAF:118.55
GND:121.85
WICHITA RDO:122.65
TWR:118.55

KMHK Zoom In..

If Map Doesn't Load, Click Here

Runways:

(A) RW 03 length 7000 ft width 150 ft
ILS 111.30 / hdg 36

(B) RW 13 length 5000 ft width 75 ft
---- / hdg 138

(C) RW 21 length 7000 ft width 150 ft
---- / hdg 216

(D) RW 31 length 5000 ft width 75 ft
---- / hdg 318

Location; KMHK
Day. 24 / Time. 05.52 Zulu
* Altimeter: 29.94
* Temperature: 16° c. 60.8°f.
* Wind from: 000° Speed 00 kn.
Dewpoint: 13° c.
Visibility: 10 Statute Miles.
Clouds: Clear (automated report).

KMHK 240552Z AUTO 00000KT 10SM CLR 16/13 A2994 RMK AO2 SLP134 T01560133 10239 20150 402670083 58002


Wind - Calm.

 
 
jpsmedia.com for Web Design worldairports.se 2018   terms of use